Time;durP1;ratioP1;P1;durP2;ratioP2;P2;SDS_P1;SDS_P2;PMS_P1;PMS_P2;Temp;Humidity;BMP_temperature;BMP_pressure;BME280_temperature;BME280_humidity;BME280_pressure;Samples;Min_cycle;Max_cycle;Signal;HPM_P1;HPM_P2
2021/12/04 00:01:11;;;;;;;28.10;18.02;;;;;;;7.00;100.00;99923.22;5072050;28;20066;-35
2021/12/04 00:03:40;;;;;;;30.27;20.17;;;;;;;6.87;100.00;99924.81;5071317;28;20052;-31
2021/12/04 00:06:13;;;;;;;30.80;19.88;;;;;;;6.82;100.00;99921.25;5072036;28;20508;-36
2021/12/04 00:08:46;;;;;;;31.42;20.05;;;;;;;6.75;100.00;99918.88;5071931;28;20044;-36
2021/12/04 00:11:14;;;;;;;29.00;18.25;;;;;;;6.71;100.00;99917.81;5071266;28;20127;-32
2021/12/04 00:13:43;;;;;;;24.63;16.77;;;;;;;6.72;100.00;99910.31;5071895;28;20041;-31
2021/12/04 00:16:11;;;;;;;32.90;20.90;;;;;;;6.74;100.00;99910.84;5071638;28;20041;-30
2021/12/04 00:18:39;;;;;;;33.45;21.83;;;;;;;6.73;100.00;99904.47;5071122;28;20470;-31
2021/12/04 00:21:07;;;;;;;28.15;18.88;;;;;;;6.70;100.00;99907.84;5071357;28;20056;-39
2021/12/04 00:23:36;;;;;;;29.27;19.50;;;;;;;6.70;100.00;99899.53;5071392;28;20489;-32
2021/12/04 00:26:05;;;;;;;32.55;21.27;;;;;;;6.68;100.00;99892.63;5070847;28;20131;-33
2021/12/04 00:28:33;;;;;;;28.67;19.55;;;;;;;6.66;100.00;99886.56;5071569;28;20032;-32
2021/12/04 00:31:07;;;;;;;33.10;21.20;;;;;;;6.62;100.00;99886.31;5070910;28;20393;-37
2021/12/04 00:33:36;;;;;;;27.25;19.17;;;;;;;6.62;100.00;99891.84;5070764;28;20457;-38
2021/12/04 00:36:07;;;;;;;33.80;20.67;;;;;;;6.59;100.00;99884.16;5071305;28;20048;-36
2021/12/04 00:49:34;;;;;;;34.35;20.08;;;;;;;6.52;100.00;99889.22;5063912;28;20048;-31
2021/12/04 00:52:02;;;;;;;31.15;18.85;;;;;;;6.50;100.00;99895.06;5071061;28;20064;-35
2021/12/04 00:54:30;;;;;;;31.48;18.70;;;;;;;6.48;100.00;99894.53;5061167;28;20052;-33
2021/12/04 00:56:59;;;;;;;30.63;19.35;;;;;;;6.46;100.00;99887.63;5071039;28;20059;-35
2021/12/04 00:59:28;;;;;;;42.97;23.30;;;;;;;6.43;100.00;99883.50;5070852;28;20040;-31
2021/12/04 01:01:56;;;;;;;39.90;22.95;;;;;;;6.38;100.00;99878.06;5070970;28;20592;-35
2021/12/04 01:04:25;;;;;;;32.78;19.15;;;;;;;6.35;100.00;99875.88;5067255;28;20075;-35
2021/12/04 01:06:53;;;;;;;30.88;17.80;;;;;;;6.35;100.00;99873.09;5070638;28;20056;-32
2021/12/04 01:09:23;;;;;;;35.05;20.25;;;;;;;6.34;100.00;99870.63;5070737;28;20048;-35
2021/12/04 01:11:52;;;;;;;32.38;18.42;;;;;;;6.33;100.00;99864.25;5059906;28;20056;-33
2021/12/04 01:14:23;;;;;;;36.33;21.30;;;;;;;6.34;100.00;99867.84;5070413;28;20131;-38
2021/12/04 01:16:51;;;;;;;38.42;21.73;;;;;;;6.29;100.00;99867.91;5070972;28;20079;-34
2021/12/04 01:19:20;;;;;;;43.83;22.48;;;;;;;6.26;100.00;99866.53;5070615;28;20059;-33
2021/12/04 01:21:49;;;;;;;46.65;24.08;;;;;;;6.24;100.00;99868.78;5070371;28;20056;-37
2021/12/04 01:24:17;;;;;;;43.47;22.35;;;;;;;6.18;100.00;99862.50;5070549;28;20048;-33
2021/12/04 01:26:45;;;;;;;47.67;24.80;;;;;;;6.13;100.00;99868.09;5070971;28;20041;-34
2021/12/04 01:29:13;;;;;;;45.60;24.58;;;;;;;6.09;100.00;99860.66;5070183;28;20413;-27
2021/12/04 01:31:43;;;;;;;51.85;25.23;;;;;;;6.05;100.00;99859.59;5070688;28;20141;-37
2021/12/04 01:34:11;;;;;;;47.13;24.58;;;;;;;6.05;100.00;99859.59;5070332;28;20045;-36
2021/12/04 01:36:38;;;;;;;39.38;21.08;;;;;;;6.05;100.00;99862.34;5070057;28;20052;-31
2021/12/04 01:39:07;;;;;;;41.90;21.95;;;;;;;6.04;100.00;99867.06;5070898;28;20049;-35
2021/12/04 01:41:35;;;;;;;33.97;17.95;;;;;;;6.02;100.00;99872.06;5071150;28;20113;-34
2021/12/04 01:44:05;;;;;;;48.97;23.30;;;;;;;6.04;100.00;99869.00;5074601;28;20037;-35
2021/12/04 01:46:33;;;;;;;43.10;21.92;;;;;;;6.02;100.00;99880.38;5074627;28;20049;-34
2021/12/04 01:49:03;;;;;;;48.25;23.38;;;;;;;6.04;100.00;99871.78;5073928;28;20055;-31
2021/12/04 01:51:31;;;;;;;37.55;18.42;;;;;;;6.06;100.00;99877.84;5073530;28;20387;-35
2021/12/04 01:53:59;;;;;;;44.95;22.17;;;;;;;6.06;100.00;99878.69;5074493;28;20048;-33
2021/12/04 01:56:30;;;;;;;41.97;21.33;;;;;;;6.08;100.00;99879.22;5073994;28;20049;-34
2021/12/04 01:58:58;;;;;;;47.75;22.38;;;;;;;6.05;100.00;99877.03;5074626;28;20059;-33
2021/12/04 02:01:26;;;;;;;47.80;23.13;;;;;;;6.03;100.00;99870.13;5074244;28;20047;-35
2021/12/04 02:03:54;;;;;;;48.50;24.20;;;;;;;5.98;100.00;99861.91;5073551;28;20048;-35
2021/12/04 02:06:23;;;;;;;49.17;23.77;;;;;;;5.99;100.00;99871.84;5073975;28;20067;-31
2021/12/04 02:08:51;;;;;;;46.85;23.45;;;;;;;5.94;100.00;99861.66;5074433;28;20053;-41
2021/12/04 02:11:19;;;;;;;38.65;19.35;;;;;;;5.93;100.00;99865.53;5073279;28;20051;-36
2021/12/04 02:13:47;;;;;;;46.90;21.17;;;;;;;5.93;100.00;99868.31;5074219;28;20378;-33
2021/12/04 02:16:16;;;;;;;51.40;23.45;;;;;;;5.94;100.00;99858.88;5073611;28;20041;-37
2021/12/04 02:18:44;;;;;;;45.97;21.73;;;;;;;5.95;100.00;99859.72;5073670;28;20468;-37
2021/12/04 02:21:14;;;;;;;42.28;20.60;;;;;;;5.94;100.00;99858.88;5073741;28;20060;-33
2021/12/04 02:23:41;;;;;;;40.53;19.63;;;;;;;5.94;100.00;99853.34;5073074;28;20067;-38
2021/12/04 02:26:09;;;;;;;51.65;22.73;;;;;;;5.93;100.00;99857.22;5073573;28;20063;-34
2021/12/04 02:28:37;;;;;;;45.90;21.15;;;;;;;5.94;100.00;99855.28;5073709;28;20053;-35
2021/12/04 02:31:05;;;;;;;44.20;22.13;;;;;;;5.94;100.00;99852.50;5073116;28;20044;-35
2021/12/04 02:33:33;;;;;;;44.20;19.23;;;;;;;5.91;100.00;99848.38;5073602;28;20044;-38
2021/12/04 02:36:02;;;;;;;46.60;20.63;;;;;;;5.92;100.00;99841.72;5073660;28;20049;-37
2021/12/04 02:38:31;;;;;;;54.15;24.05;;;;;;;5.92;100.00;99840.91;5073106;28;20047;-36
2021/12/04 02:41:01;;;;;;;41.42;20.70;;;;;;;5.91;100.00;99834.53;5073365;28;20048;-35
2021/12/04 02:43:33;;;;;;;44.65;19.75;;;;;;;5.90;100.00;99832.88;5073409;28;20054;-34
2021/12/04 02:46:01;;;;;;;;;;;;;;;5.81;100.00;99832.66;5073330;28;20040;-36
2021/12/04 02:48:29;;;;;;;46.45;20.50;;;;;;;5.78;100.00;99824.97;5073316;28;19924;-32
2021/12/04 02:50:57;;;;;;;42.55;20.02;;;;;;;5.79;100.00;99826.63;5073386;28;20556;-36
2021/12/04 02:53:24;;;;;;;36.92;18.23;;;;;;;5.80;100.00;99819.94;5072273;28;20131;-34
2021/12/04 02:55:54;;;;;;;53.40;20.23;;;;;;;5.82;100.00;99822.41;5071886;28;20048;-34
2021/12/04 02:58:22;;;;;;;48.55;19.08;;;;;;;5.81;100.00;99824.34;5073153;28;20048;-32
2021/12/04 03:00:51;;;;;;;56.25;21.33;;;;;;;5.80;100.00;99825.47;5072681;28;20558;-32
2021/12/04 03:03:21;;;;;;;50.90;23.02;;;;;;;5.81;100.00;99809.69;5073134;28;20098;-34
2021/12/04 03:05:50;;;;;;;51.45;22.63;;;;;;;5.81;100.00;99813.28;5073575;28;20481;-33
2021/12/04 03:08:22;;;;;;;;;;;;;;;5.80;100.00;99819.13;5071995;28;20504;-30
2021/12/04 03:10:51;;;;;;;35.00;17.13;;;;;;;5.77;100.00;99806.72;5073358;28;19981;-36
2021/12/04 03:13:21;;;;;;;59.95;26.75;;;;;;;5.81;100.00;99804.97;5072177;28;20099;-34
2021/12/04 03:15:57;;;;;;;47.13;20.85;;;;;;;5.82;100.00;99803.84;5073299;28;20131;-28
2021/12/04 03:18:24;;;;;;;56.30;24.23;;;;;;;5.83;100.00;99801.91;5072662;28;20044;-34
2021/12/04 03:20:56;;;;;;;41.50;19.63;;;;;;;5.85;100.00;99794.97;5072058;28;20048;-31
2021/12/04 03:23:29;;;;;;;51.00;23.25;;;;;;;5.86;100.00;99793.84;5072889;28;20405;-34
2021/12/04 03:25:59;;;;;;;50.45;23.08;;;;;;;5.88;100.00;99805.50;5070038;28;20037;-35
2021/12/04 03:28:28;;;;;;;51.08;23.55;;;;;;;5.91;100.00;99787.47;5072198;28;20041;-35
2021/12/04 03:31:00;;;;;;;60.03;25.90;;;;;;;5.92;100.00;99788.31;5071879;28;20060;-37
2021/12/04 03:41:44;;;;;;;55.85;25.55;;;;;;;5.97;100.00;99789.06;5071826;28;20386;-35
2021/12/04 03:44:13;;;;;;;47.20;21.88;;;;;;;5.98;100.00;99793.50;5072265;28;20071;-36
2021/12/04 03:46:44;;;;;;;55.95;24.25;;;;;;;5.98;100.00;99787.97;5072512;28;20053;-32
2021/12/04 03:49:12;;;;;;;59.40;24.77;;;;;;;5.96;100.00;99781.06;5071591;28;20504;-29
2021/12/04 03:51:40;;;;;;;60.78;25.52;;;;;;;5.95;100.00;99782.19;5072434;28;20078;-32
2021/12/04 03:54:07;;;;;;;58.45;25.05;;;;;;;5.96;100.00;99776.34;5072181;28;20049;-29
2021/12/04 03:56:36;;;;;;;59.85;26.13;;;;;;;5.96;100.00;99776.34;5071302;28;20449;-34
2021/12/04 03:59:04;;;;;;;68.10;27.45;;;;;;;5.96;100.00;99772.75;5072294;28;20070;-32
2021/12/04 04:01:33;;;;;;;68.50;26.25;;;;;;;5.98;100.00;99779.66;5071852;28;20047;-33
2021/12/04 04:04:01;;;;;;;66.97;27.50;;;;;;;5.99;100.00;99769.41;5070551;28;20041;-32
2021/12/04 04:06:29;;;;;;;60.67;25.70;;;;;;;6.00;100.00;99774.59;5070578;28;20056;-33
2021/12/04 04:08:57;;;;;;;59.33;26.55;;;;;;;6.00;100.00;99768.25;5071664;28;20040;-39
2021/12/04 04:11:24;;;;;;;64.75;26.02;;;;;;;6.02;100.00;99763.25;5071336;28;20052;-37
2021/12/04 04:13:52;;;;;;;64.22;25.92;;;;;;;6.04;100.00;99763.78;5071463;28;20051;-37
2021/12/04 04:16:22;;;;;;;69.90;27.40;;;;;;;6.05;100.00;99751.56;5071223;28;20504;-32
2021/12/04 04:18:52;;;;;;;58.72;24.88;;;;;;;6.06;100.00;99754.06;5071601;28;20123;-36
2021/12/04 04:21:19;;;;;;;60.10;23.90;;;;;;;6.07;100.00;99752.09;5071782;28;20041;-32
2021/12/04 04:23:47;;;;;;;62.17;25.88;;;;;;;6.08;100.00;99759.28;5071209;28;20394;-27
2021/12/04 04:26:15;;;;;;;58.33;24.50;;;;;;;6.09;100.00;99755.41;5071508;28;20091;-31
2021/12/04 04:28:43;;;;;;;64.38;25.42;;;;;;;6.10;100.00;99757.06;5071519;28;20497;-39
2021/12/04 04:31:10;;;;;;;56.10;22.60;;;;;;;6.10;100.00;99755.13;5070642;28;20395;-35
2021/12/04 04:33:40;;;;;;;60.45;25.30;;;;;;;6.11;100.00;99750.41;5071615;28;20508;-39
2021/12/04 04:36:21;;;;;;;64.85;26.40;;;;;;;6.11;100.00;99744.88;5071064;28;20822;-32
2021/12/04 04:39:00;;;;;;;63.20;24.70;;;;;;;6.10;100.00;99751.53;5060685;28;20048;-32
2021/12/04 04:58:18;;;;;;;65.25;26.17;;;;;;;6.06;100.00;99739.38;5071059;28;20083;-36
2021/12/04 05:11:57;;;;;;;76.68;25.17;;;;;;;5.90;100.00;99738.75;5071027;28;20040;-36
2021/12/04 05:14:25;;;;;;;106.10;28.40;;;;;;;5.89;100.00;99734.34;5069207;28;20048;-37
2021/12/04 05:17:00;;;;;;;94.35;28.98;;;;;;;5.86;100.00;99741.25;5068768;28;20046;-34
2021/12/04 05:19:37;;;;;;;109.47;28.60;;;;;;;5.85;100.00;99734.06;5069424;28;20409;-38
2021/12/04 05:22:05;;;;;;;85.07;27.65;;;;;;;5.83;100.00;99736.31;5071052;28;20101;-30
2021/12/04 05:24:35;;;;;;;77.43;27.35;;;;;;;5.83;100.00;99738.25;5070966;28;20363;-39
2021/12/04 05:27:03;;;;;;;102.78;29.50;;;;;;;5.79;100.00;99729.72;5070143;28;20416;-33
2021/12/04 05:29:31;;;;;;;78.45;25.40;;;;;;;5.78;100.00;99728.09;5070441;28;20071;-31
2021/12/04 05:31:59;;;;;;;95.82;26.90;;;;;;;5.75;100.00;99719.53;5070451;28;20487;-37
2021/12/04 05:34:26;;;;;;;109.88;28.17;;;;;;;5.74;100.00;99721.50;5070068;28;20052;-33
2021/12/04 05:36:54;;;;;;;83.93;27.63;;;;;;;5.72;100.00;99717.34;5071077;28;20036;-32
2021/12/04 05:39:22;;;;;;;119.63;29.98;;;;;;;5.68;100.00;99722.66;5070744;28;20118;-31
2021/12/04 05:41:52;;;;;;;86.30;27.48;;;;;;;5.67;100.00;99718.25;5069924;28;20041;-29
2021/12/04 05:44:23;;;;;;;133.00;32.28;;;;;;;5.65;100.00;99723.25;5069470;28;20056;-34
2021/12/04 05:46:54;;;;;;;97.30;29.13;;;;;;;5.64;100.00;99718.00;5070337;28;20048;-32
2021/12/04 05:49:24;;;;;;;105.40;27.40;;;;;;;5.63;100.00;99716.34;5061034;28;20044;-33
2021/12/04 05:52:13;;;;;;;72.07;23.33;;;;;;;5.64;100.00;99712.47;5070459;28;20040;-37
2021/12/04 05:55:08;;;;;;;99.43;27.63;;;;;;;5.62;100.00;99711.94;5062971;28;20409;-36
2021/12/04 05:57:38;;;;;;;92.00;24.95;;;;;;;5.63;100.00;99708.03;5070703;28;20041;-30
2021/12/04 06:00:07;;;;;;;71.28;25.95;;;;;;;5.65;100.00;99723.25;5070739;28;20048;-34
2021/12/04 06:02:35;;;;;;;85.47;27.15;;;;;;;5.66;100.00;99719.34;5069913;28;20059;-31
2021/12/04 06:05:04;;;;;;;62.85;24.55;;;;;;;5.71;100.00;99708.22;5070764;28;20498;-36
2021/12/04 06:07:32;;;;;;;65.28;23.50;;;;;;;5.76;100.00;99713.72;5070014;28;20051;-32
2021/12/04 06:09:59;;;;;;;84.10;27.60;;;;;;;5.80;100.00;99711.16;5069797;28;20047;-36
2021/12/04 06:12:27;;;;;;;67.75;23.90;;;;;;;5.82;100.00;99709.75;5069964;28;20382;-30
2021/12/04 06:14:56;;;;;;;90.10;25.38;;;;;;;5.85;100.00;99711.09;5070303;28;20048;-35
2021/12/04 06:17:25;;;;;;;95.97;26.33;;;;;;;5.87;100.00;99703.31;5069869;28;20063;-35
2021/12/04 06:22:38;;;;;;;91.63;24.98;;;;;;;5.86;100.00;99696.13;5070507;28;20045;-34
2021/12/04 06:25:08;;;;;;;100.32;25.85;;;;;;;5.85;100.00;99692.53;5066291;28;20051;-29
2021/12/04 06:27:36;;;;;;;126.65;27.33;;;;;;;5.86;100.00;99696.97;5071096;28;20060;-35
2021/12/04 06:30:06;;;;;;;114.80;26.83;;;;;;;5.83;100.00;99697.53;5072897;28;20043;-34
2021/12/04 06:32:35;;;;;;;82.75;25.83;;;;;;;5.82;100.00;99695.91;5063039;28;20056;-34
2021/12/04 06:35:04;;;;;;;95.80;26.08;;;;;;;5.85;100.00;99694.50;5073422;28;20498;-33
2021/12/04 06:37:32;;;;;;;102.30;24.92;;;;;;;5.86;100.00;99685.06;5073174;28;20089;-29
2021/12/04 06:39:59;;;;;;;70.88;19.40;;;;;;;5.87;100.00;99690.31;5072268;28;20045;-32
2021/12/04 06:42:28;;;;;;;97.38;23.85;;;;;;;5.87;100.00;99690.31;5069035;28;20501;-35
2021/12/04 06:44:56;;;;;;;110.88;24.27;;;;;;;5.85;100.00;99687.00;5071792;28;20052;-32
2021/12/04 06:47:25;;;;;;;111.63;27.50;;;;;;;5.84;100.00;99688.13;5072437;28;20044;-36
2021/12/04 06:50:00;;;;;;;92.05;25.05;;;;;;;5.81;100.00;99680.41;5072792;28;20048;-35
2021/12/04 06:52:28;;;;;;;102.05;25.85;;;;;;;5.82;100.00;99684.81;5072203;28;20044;-32
2021/12/04 06:54:57;;;;;;;107.03;25.42;;;;;;;5.83;100.00;99686.47;5073401;28;20052;-35
2021/12/04 06:57:27;;;;;;;86.97;23.58;;;;;;;5.82;100.00;99679.28;5073289;28;20055;-33
2021/12/04 06:59:56;;;;;;;120.40;25.52;;;;;;;5.80;100.00;99670.47;5072594;28;20037;-32
2021/12/04 07:02:24;;;;;;;104.88;26.08;;;;;;;5.74;100.00;99666.13;5073537;28;20049;-31
2021/12/04 07:04:53;;;;;;;81.22;26.17;;;;;;;5.74;100.00;99662.53;5073128;28;20123;-33
2021/12/04 07:07:21;;;;;;;103.47;25.45;;;;;;;5.72;100.00;99660.06;5072618;28;20032;-32
2021/12/04 07:09:48;;;;;;;108.82;26.30;;;;;;;5.70;100.00;99658.72;5072826;28;20040;-33
2021/12/04 07:12:16;;;;;;;134.93;27.75;;;;;;;5.71;100.00;99661.19;5072894;28;20049;-38
2021/12/04 07:14:44;;;;;;;109.00;26.50;;;;;;;5.69;100.00;99663.41;5073191;28;20084;-29
2021/12/04 07:17:11;;;;;;;87.15;23.70;;;;;;;5.69;100.00;99660.66;5071526;28;20075;-34
2021/12/04 07:19:39;;;;;;;104.22;23.95;;;;;;;5.70;100.00;99667.00;5071210;28;20127;-33
2021/12/04 07:22:10;;;;;;;96.57;24.45;;;;;;;5.72;100.00;99671.13;5071758;28;20414;-32
2021/12/04 07:24:38;;;;;;;105.38;25.85;;;;;;;5.71;100.00;99658.41;5071408;28;20050;-31
2021/12/04 07:27:06;;;;;;;114.20;24.58;;;;;;;5.73;100.00;99658.13;5070115;28;20477;-35
2021/12/04 07:29:34;;;;;;;111.25;25.58;;;;;;;5.72;100.00;99656.47;5071567;28;20068;-34
2021/12/04 07:32:02;;;;;;;141.63;27.23;;;;;;;5.72;100.00;99657.28;5071108;28;20072;-37
2021/12/04 07:34:30;;;;;;;75.30;21.60;;;;;;;5.72;100.00;99657.28;5070580;28;20122;-33
2021/12/04 07:36:57;;;;;;;100.88;24.98;;;;;;;5.71;100.00;99655.66;5071215;28;20143;-33
2021/12/04 07:39:26;;;;;;;120.68;27.30;;;;;;;5.72;100.00;99654.53;5070903;28;20040;-35
2021/12/04 07:41:54;;;;;;;111.55;25.80;;;;;;;5.73;100.00;99655.34;5070431;28;20053;-37
2021/12/04 07:44:22;;;;;;;96.55;26.13;;;;;;;5.72;100.00;99651.75;5070218;28;20096;-37
2021/12/04 07:46:50;;;;;;;95.50;25.58;;;;;;;5.72;100.00;99649.00;5070638;28;20041;-33
2021/12/04 07:49:18;;;;;;;78.00;24.77;;;;;;;5.75;100.00;99640.09;5070109;28;20050;-33
2021/12/04 07:51:47;;;;;;;119.13;25.77;;;;;;;5.79;100.00;99634.78;5070445;28;20482;-37
2021/12/04 07:54:14;;;;;;;87.80;22.83;;;;;;;5.79;100.00;99635.63;5070935;28;20055;-34
2021/12/04 07:56:44;;;;;;;82.47;24.48;;;;;;;5.80;100.00;99631.69;5068659;28;20159;-34
2021/12/04 07:59:12;;;;;;;72.45;23.73;;;;;;;5.79;100.00;99623.72;5070963;28;20048;-34
2021/12/04 08:01:39;;;;;;;86.95;24.88;;;;;;;5.73;100.00;99628.50;5070385;28;20074;-38
2021/12/04 08:04:07;;;;;;;98.72;27.02;;;;;;;5.68;100.00;99623.03;5070938;28;20060;-39
2021/12/04 08:06:35;;;;;;;80.03;25.85;;;;;;;5.67;100.00;99621.38;5070718;28;20482;-35
2021/12/04 08:09:04;;;;;;;83.78;24.13;;;;;;;5.68;100.00;99602.81;5070258;28;20051;-31
2021/12/04 08:11:32;;;;;;;78.28;23.73;;;;;;;5.69;100.00;99601.72;5070871;28;20044;-35
2021/12/04 08:14:01;;;;;;;81.30;23.33;;;;;;;5.72;100.00;99595.59;5070620;28;20048;-36
2021/12/04 08:16:32;;;;;;;79.25;23.33;;;;;;;5.72;100.00;99593.63;5069800;28;20056;-35
2021/12/04 08:19:00;;;;;;;78.35;24.15;;;;;;;5.71;100.00;99599.47;5070591;28;20033;-34
2021/12/04 08:21:28;;;;;;;89.85;25.88;;;;;;;5.64;100.00;99613.66;5070702;28;20060;-38
2021/12/04 08:23:56;;;;;;;91.07;26.10;;;;;;;5.64;100.00;99608.13;5069622;28;20063;-33
2021/12/04 08:26:24;;;;;;;83.95;24.00;;;;;;;5.65;100.00;99625.56;5070735;28;20067;-31
2021/12/04 08:28:52;;;;;;;82.75;23.40;;;;;;;5.66;100.00;99629.97;5069892;28;20049;-36
2021/12/04 08:31:21;;;;;;;78.03;23.30;;;;;;;5.64;100.00;99626.69;5069708;28;20059;-35
2021/12/04 08:33:48;;;;;;;90.88;25.23;;;;;;;5.61;100.00;99627.25;5070247;28;20055;-40
2021/12/04 08:36:16;;;;;;;77.40;23.33;;;;;;;5.62;100.00;99621.44;5070617;28;20058;-36
2021/12/04 08:38:47;;;;;;;72.35;22.23;;;;;;;5.60;100.00;99622.84;5069846;28;20044;-33
2021/12/04 08:41:15;;;;;;;78.07;23.75;;;;;;;5.60;100.00;99626.44;5068959;28;20442;-37
2021/12/04 08:43:44;;;;;;;95.22;25.15;;;;;;;5.58;100.00;99631.47;5069637;28;20413;-35
2021/12/04 08:46:13;;;;;;;84.15;23.92;;;;;;;5.59;100.00;99629.53;5070256;28;20493;-29
2021/12/04 08:48:42;;;;;;;76.50;22.25;;;;;;;5.57;100.00;99627.06;5070159;28;20416;-36
2021/12/04 08:51:10;;;;;;;84.32;24.50;;;;;;;5.60;100.00;99637.50;5068760;28;20048;-37
2021/12/04 08:53:38;;;;;;;76.05;23.48;;;;;;;5.61;100.00;99633.63;5069970;28;20049;-29
2021/12/04 08:56:06;;;;;;;67.82;21.73;;;;;;;5.63;100.00;99636.91;5069954;28;20063;-40
2021/12/04 08:58:35;;;;;;;79.05;23.58;;;;;;;5.63;100.00;99633.31;5066911;28;20046;-34
2021/12/04 09:01:06;;;;;;;65.57;22.40;;;;;;;5.56;100.00;99633.72;5070307;28;20041;-33
2021/12/04 09:03:37;;;;;;;77.13;23.45;;;;;;;5.51;100.00;99642.88;5069895;28;20055;-31
2021/12/04 09:06:06;;;;;;;78.88;23.63;;;;;;;5.50;100.00;99637.66;5069359;28;20044;-29
2021/12/04 09:08:35;;;;;;;60.55;19.63;;;;;;;5.50;100.00;99637.66;5070149;28;20045;-33
2021/12/04 09:11:06;;;;;;;69.25;21.13;;;;;;;5.53;100.00;99632.34;5069867;28;20041;-34
2021/12/04 09:13:35;;;;;;;69.72;22.85;;;;;;;5.51;100.00;99631.00;5069456;28;20469;-33
2021/12/04 09:16:03;;;;;;;72.30;22.98;;;;;;;5.50;100.00;99632.13;5069716;28;20572;-32
2021/12/04 09:18:31;;;;;;;64.57;20.80;;;;;;;5.49;100.00;99622.16;5069696;28;20055;-31
2021/12/04 09:20:59;;;;;;;63.40;21.77;;;;;;;5.46;100.00;99622.75;5068917;28;20052;-32
2021/12/04 09:23:33;;;;;;;64.03;21.33;;;;;;;5.45;100.00;99608.09;5069799;28;20414;-34
2021/12/04 09:26:03;;;;;;;69.45;23.90;;;;;;;5.43;100.00;99615.88;5068789;28;20123;-33
2021/12/04 09:28:41;;;;;;;72.43;22.58;;;;;;;5.40;100.00;99615.63;5069566;28;20549;-29
2021/12/04 09:31:28;;;;;;;65.70;21.13;;;;;;;5.39;100.00;99614.00;5069615;28;20048;-33
2021/12/04 10:00:01;;;;;;;66.03;20.52;;;;;;;5.40;100.00;99610.09;5058183;28;20426;-30
2021/12/04 10:02:40;;;;;;;78.88;23.38;;;;;;;5.33;100.00;99602.19;5069324;28;20048;-31
2021/12/04 10:13:47;;;;;;;81.50;22.20;;;;;;;5.38;100.00;99584.69;5065845;28;20049;-36
2021/12/04 10:22:05;;;;;;;76.43;22.80;;;;;;;5.29;100.00;99575.41;5060772;28;20053;-34
2021/12/04 10:24:47;;;;;;;64.82;21.40;;;;;;;5.31;100.00;99576.75;5073060;28;20123;-33
2021/12/04 10:33:12;;;;;;;71.85;21.25;;;;;;;5.37;100.00;99552.63;5072520;28;20079;-31
2021/12/04 10:35:40;;;;;;;81.43;23.52;;;;;;;5.36;100.00;99550.97;5060603;28;20083;-33
2021/12/04 10:38:14;;;;;;;69.55;22.70;;;;;;;5.33;100.00;99555.16;5071610;28;20033;-34
2021/12/04 10:40:44;;;;;;;72.50;23.05;;;;;;;5.34;100.00;99556.81;5072259;28;20694;-35
2021/12/04 10:43:15;;;;;;;68.85;23.42;;;;;;;5.29;100.00;99556.88;5071572;28;20151;-39
2021/12/04 10:45:47;;;;;;;64.30;22.40;;;;;;;5.26;100.00;99554.69;5072652;28;20049;-31
2021/12/04 10:48:18;;;;;;;60.88;20.90;;;;;;;5.28;100.00;99546.09;5072299;28;20128;-32
2021/12/04 10:50:52;;;;;;;53.33;18.88;;;;;;;5.34;100.00;99553.22;5068707;28;20041;-32
2021/12/04 10:53:24;;;;;;;52.38;20.13;;;;;;;5.34;100.00;99547.69;5071951;28;20486;-33
2021/12/04 10:55:58;;;;;;;48.88;18.52;;;;;;;5.37;100.00;99544.34;5068623;28;20040;-37
2021/12/04 11:01:33;;;;;;;52.33;19.67;;;;;;;5.37;100.00;99528.56;5072098;28;20040;-31
2021/12/04 11:04:14;;;;;;;57.40;21.60;;;;;;;5.30;100.00;99511.50;5071449;28;20545;-30
2021/12/04 11:21:21;;;;;;;52.58;20.55;;;;;;;5.36;100.00;99493.72;5071506;28;20061;-35
2021/12/04 11:24:05;;;;;;;62.33;21.75;;;;;;;5.31;100.00;99488.25;5063531;28;20066;-36
2021/12/04 11:35:38;;;;;;;56.45;21.30;;;;;;;5.38;100.00;99493.41;5070576;28;20071;-36
2021/12/04 11:38:14;;;;;;;49.67;19.42;;;;;;;5.28;100.00;99490.78;5063583;28;20059;-35
2021/12/04 11:43:39;;;;;;;55.85;20.73;;;;;;;5.31;100.00;99492.97;5054207;28;20122;-34
2021/12/04 11:46:21;;;;;;;52.13;18.90;;;;;;;5.38;100.00;99491.47;5072494;28;20048;-30
2021/12/04 11:48:49;;;;;;;52.47;19.58;;;;;;;5.42;100.00;99486.16;5071977;28;20049;-34
2021/12/04 11:51:23;;;;;;;46.65;18.50;;;;;;;5.45;100.00;99482.78;5072082;28;20056;-34
2021/12/04 11:53:54;;;;;;;60.58;21.58;;;;;;;5.49;100.00;99487.44;5071684;28;20036;-31
2021/12/04 11:56:25;;;;;;;53.03;19.88;;;;;;;5.51;100.00;99492.66;5071890;28;20057;-37
2021/12/04 11:58:53;;;;;;;56.07;20.77;;;;;;;5.55;100.00;99488.19;5070369;28;20079;-40
2021/12/04 12:01:31;;;;;;;52.40;20.30;;;;;;;5.60;100.00;99477.00;5071524;28;20049;-34
2021/12/04 12:04:02;;;;;;;42.65;17.67;;;;;;;5.59;100.00;99474.56;5072443;28;20055;-32
2021/12/04 12:06:37;;;;;;;54.00;21.15;;;;;;;5.60;100.00;99468.72;5068875;28;20455;-32
2021/12/04 12:09:14;;;;;;;50.20;18.73;;;;;;;5.64;100.00;99468.94;5071394;28;20045;-35
2021/12/04 12:11:53;;;;;;;51.80;19.90;;;;;;;5.63;100.00;99464.53;5068559;28;20094;-37
2021/12/04 12:14:23;;;;;;;45.45;18.88;;;;;;;5.64;100.00;99461.47;5071825;28;20051;-32
2021/12/04 12:16:55;;;;;;;48.33;18.45;;;;;;;5.69;100.00;99458.63;5068184;28;20126;-31
2021/12/04 12:19:28;;;;;;;47.00;17.70;;;;;;;5.70;100.00;99460.28;5071774;28;20037;-35
2021/12/04 12:22:03;;;;;;;48.20;18.73;;;;;;;5.72;100.00;99462.75;5071315;28;20051;-38
2021/12/04 12:27:24;;;;;;;46.90;18.88;;;;;;;5.62;100.00;99447.09;5067084;28;20040;-33
2021/12/04 12:32:56;;;;;;;37.75;16.60;;;;;;;5.60;100.00;99451.28;5070764;28;20095;-39
2021/12/04 12:38:16;;;;;;;39.17;16.75;;;;;;;5.52;100.00;99458.34;5063920;28;19931;-37
2021/12/04 12:40:58;;;;;;;36.75;16.00;;;;;;;5.54;100.00;99456.09;5071231;28;20040;-38
2021/12/04 12:43:36;;;;;;;41.45;17.63;;;;;;;5.54;100.00;99458.88;5070445;28;20046;-32
2021/12/04 12:46:05;;;;;;;34.92;16.05;;;;;;;5.54;100.00;99458.88;5071363;28;20093;-37
2021/12/04 12:48:43;;;;;;;32.63;15.02;;;;;;;5.58;100.00;99457.16;5070760;28;20528;-35
2021/12/04 12:51:11;;;;;;;41.78;18.08;;;;;;;5.54;100.00;99454.16;5070470;28;20048;-39
2021/12/04 12:53:46;;;;;;;36.50;16.52;;;;;;;5.53;100.00;99443.38;5070970;28;20056;-36
2021/12/04 12:56:17;;;;;;;40.92;18.52;;;;;;;5.53;100.00;99435.09;5071124;28;20057;-36
2021/12/04 12:58:50;;;;;;;41.75;18.02;;;;;;;5.53;100.00;99426.78;5070835;28;20048;-35
2021/12/04 13:13:25;;;;;;;36.58;16.90;;;;;;;5.51;100.00;99409.66;5069931;28;20056;-33
2021/12/04 13:15:59;;;;;;;40.70;16.83;;;;;;;5.51;100.00;99412.44;5070990;28;20131;-30
2021/12/04 13:18:29;;;;;;;38.40;16.63;;;;;;;5.50;100.00;99406.06;5070226;28;20063;-39
2021/12/04 13:21:02;;;;;;;37.70;16.00;;;;;;;5.53;100.00;99410.19;5070657;28;20047;-37
2021/12/04 13:23:30;;;;;;;35.20;16.15;;;;;;;5.57;100.00;99410.41;5070275;28;20091;-35
2021/12/04 13:26:01;;;;;;;40.35;16.88;;;;;;;5.58;100.00;99412.88;5070385;28;20342;-34
2021/12/04 13:28:32;;;;;;;38.85;16.92;;;;;;;5.58;100.00;99407.34;5070646;28;20052;-33
2021/12/04 13:31:00;;;;;;;38.42;15.55;;;;;;;5.57;100.00;99411.25;5070584;28;20056;-35
2021/12/04 13:33:29;;;;;;;46.58;17.73;;;;;;;5.58;100.00;99410.13;5069820;28;20067;-33
2021/12/04 13:35:57;;;;;;;40.22;17.35;;;;;;;5.53;100.00;99410.19;5068720;28;20573;-31
2021/12/04 13:38:27;;;;;;;30.23;13.70;;;;;;;5.55;100.00;99407.94;5073636;28;20062;-39
2021/12/04 13:40:56;;;;;;;20.00;8.77;;;;;;;5.60;100.00;99401.47;5073269;28;20481;-34
2021/12/04 13:43:26;;;;;;;7.70;2.90;;;;;;;5.60;100.00;99405.06;5073669;28;20056;-30
2021/12/04 13:45:58;;;;;;;5.75;1.67;;;;;;;5.60;100.00;99399.53;5073077;28;20223;-31
2021/12/04 13:48:27;;;;;;;4.32;0.98;;;;;;;5.60;100.00;99396.78;5063331;28;20048;-36
2021/12/04 13:50:56;;;;;;;4.15;1.02;;;;;;;5.61;100.00;99395.66;5073361;28;20060;-33
2021/12/04 13:53:27;;;;;;;3.35;0.82;;;;;;;5.67;100.00;99402.75;5072763;28;20118;-34
2021/12/04 13:55:58;;;;;;;5.88;0.93;;;;;;;5.73;100.00;99398.78;5071369;28;20045;-32